Time;durP1;ratioP1;P1;durP2;ratioP2;P2;SDS_P1;SDS_P2;PMS_P1;PMS_P2;Temp;Humidity;BMP_temperature;BMP_pressure;BME280_temperature;BME280_humidity;BME280_pressure;Samples;Min_cycle;Max_cycle;Signal;HPM_P1;HPM_P2
2023/02/01 00:01:55;;;;;;;11.87;3.50;;;4.40;99.90;;;;;;4876879;29;20522;-71
2023/02/01 00:04:20;;;;;;;6.13;2.27;;;4.50;99.90;;;;;;4869009;29;20505;-71
2023/02/01 00:06:46;;;;;;;8.70;5.23;;;4.40;99.90;;;;;;4870165;29;20766;-71
2023/02/01 00:09:12;;;;;;;16.93;2.77;;;4.20;99.90;;;;;;4869870;29;20217;-71
2023/02/01 00:11:38;;;;;;;11.23;2.93;;;4.10;99.90;;;;;;4869829;29;20180;-70
2023/02/01 00:14:03;;;;;;;9.80;2.90;;;4.00;99.90;;;;;;4868603;29;20972;-71
2023/02/01 00:16:30;;;;;;;14.07;3.40;;;4.00;99.90;;;;;;4867036;29;20223;-72
2023/02/01 00:19:02;;;;;;;15.73;3.20;;;3.80;99.90;;;;;;4872876;29;20947;-71
2023/02/01 00:21:28;;;;;;;12.30;2.43;;;3.90;99.90;;;;;;4872106;29;20469;-72
2023/02/01 00:23:54;;;;;;;13.33;3.93;;;4.00;99.90;;;;;;4872414;29;20944;-69
2023/02/01 00:26:41;;;;;;;9.80;3.23;;;4.00;99.90;;;;;;4872486;29;20433;-73
2023/02/01 00:29:11;;;;;;;18.57;4.33;;;4.10;99.90;;;;;;4868534;29;20181;-70
2023/02/01 00:31:37;;;;;;;5.23;2.60;;;4.00;99.90;;;;;;4867585;29;20434;-71
2023/02/01 00:34:03;;;;;;;18.93;3.30;;;4.10;99.90;;;;;;4866819;29;20527;-72
2023/02/01 00:36:29;;;;;;;15.53;3.70;;;4.00;99.90;;;;;;4868374;29;20437;-72
2023/02/01 00:38:55;;;;;;;13.60;2.53;;;3.90;99.90;;;;;;4864779;29;20413;-71
2023/02/01 00:41:22;;;;;;;7.07;3.30;;;3.90;99.90;;;;;;4865659;29;20434;-72
2023/02/01 00:43:50;;;;;;;12.93;3.40;;;3.90;99.90;;;;;;4869070;29;20187;-72
2023/02/01 00:46:17;;;;;;;6.20;2.10;;;4.10;99.90;;;;;;4868408;29;20448;-71
2023/02/01 00:48:43;;;;;;;6.47;2.93;;;4.10;99.90;;;;;;4873263;29;20508;-72
2023/02/01 00:51:15;;;;;;;7.77;2.50;;;4.20;99.90;;;;;;4869763;29;21004;-74
2023/02/01 00:53:40;;;;;;;11.43;5.20;;;4.00;99.90;;;;;;4866042;29;20501;-73
2023/02/01 00:56:07;;;;;;;10.13;3.30;;;4.00;99.90;;;;;;4869680;29;20481;-73
2023/02/01 00:58:33;;;;;;;9.60;3.17;;;4.00;99.90;;;;;;4868158;29;20426;-72
2023/02/01 01:01:16;;;;;;;11.90;2.67;;;4.20;99.90;;;;;;4870088;29;20418;-72
2023/02/01 01:03:45;;;;;;;6.50;1.90;;;4.30;99.90;;;;;;4869828;29;20879;-72
2023/02/01 01:06:20;;;;;;;7.53;2.23;;;4.20;99.90;;;;;;4875023;29;20445;-72
2023/02/01 01:08:45;;;;;;;15.47;3.00;;;4.10;99.90;;;;;;4873944;29;20476;-69
2023/02/01 01:11:17;;;;;;;5.80;2.10;;;4.00;99.90;;;;;;4875916;29;20449;-72
2023/02/01 01:13:46;;;;;;;8.03;3.23;;;3.90;99.90;;;;;;4868041;29;20225;-72
2023/02/01 01:16:11;;;;;;;8.50;1.90;;;3.90;99.90;;;;;;4887834;29;20449;-71
2023/02/01 01:18:38;;;;;;;7.03;1.57;;;4.00;99.90;;;;;;4874354;29;20792;-73
2023/02/01 01:21:08;;;;;;;8.20;2.57;;;3.90;99.90;;;;;;4872476;29;20181;-71
2023/02/01 01:23:35;;;;;;;4.90;1.60;;;3.80;99.90;;;;;;4871271;29;20912;-73
2023/02/01 01:26:00;;;;;;;10.90;2.70;;;3.90;99.90;;;;;;4866800;29;20809;-73
2023/02/01 01:28:26;;;;;;;6.80;2.30;;;3.90;99.90;;;;;;4871264;29;20508;-70
2023/02/01 01:30:52;;;;;;;8.80;2.13;;;3.80;99.90;;;;;;4874847;29;20214;-72
2023/02/01 01:33:17;;;;;;;9.97;2.87;;;3.80;99.90;;;;;;4870240;29;20957;-73
2023/02/01 01:35:43;;;;;;;15.43;3.47;;;3.80;99.90;;;;;;4860661;29;20184;-71
2023/02/01 01:38:11;;;;;;;7.40;2.30;;;3.80;99.90;;;;;;4863433;29;20312;-71
2023/02/01 01:40:37;;;;;;;6.37;2.60;;;3.80;99.90;;;;;;4872068;29;20173;-71
2023/02/01 01:43:03;;;;;;;14.63;4.20;;;3.80;99.90;;;;;;4871739;29;20808;-72
2023/02/01 01:45:33;;;;;;;6.60;1.90;;;3.90;99.90;;;;;;4870815;29;20450;-70
2023/02/01 01:48:01;;;;;;;13.63;3.77;;;3.80;99.90;;;;;;4869918;29;20193;-71
2023/02/01 01:50:48;;;;;;;13.30;2.60;;;3.80;99.90;;;;;;4871041;29;20422;-70
2023/02/01 01:53:24;;;;;;;4.33;2.07;;;3.80;99.90;;;;;;4869591;29;20871;-71
2023/02/01 01:55:52;;;;;;;9.93;2.83;;;3.90;99.90;;;;;;4873915;29;20422;-71
2023/02/01 01:58:21;;;;;;;7.50;2.60;;;3.80;99.90;;;;;;4869777;29;20829;-73
2023/02/01 02:00:47;;;;;;;7.20;3.17;;;3.90;99.90;;;;;;4877283;29;20947;-71
2023/02/01 02:03:34;;;;;;;5.90;2.80;;;4.00;99.90;;;;;;4869465;29;20464;-71
2023/02/01 02:06:03;;;;;;;6.57;2.40;;;3.90;99.90;;;;;;4861825;29;20797;-71
2023/02/01 02:08:29;;;;;;;12.83;2.83;;;3.90;99.90;;;;;;4866560;29;20420;-71
2023/02/01 02:11:01;;;;;;;10.90;2.10;;;3.90;99.90;;;;;;4872457;29;20441;-71
2023/02/01 02:13:38;;;;;;;12.83;5.00;;;4.00;99.90;;;;;;4871181;29;20556;-71
2023/02/01 02:16:07;;;;;;;7.33;2.03;;;4.00;99.90;;;;;;4863805;29;20469;-71
2023/02/01 02:18:49;;;;;;;4.77;3.17;;;3.90;99.90;;;;;;4870985;29;20415;-71
2023/02/01 02:21:51;;;;;;;13.47;3.40;;;4.00;99.90;;;;;;4872186;29;20422;-73
2023/02/01 02:24:34;;;;;;;6.73;2.80;;;3.90;99.90;;;;;;4871779;29;20421;-73
2023/02/01 02:28:03;;;;;;;10.20;2.90;;;4.10;99.90;;;;;;4868436;29;20521;-71
2023/02/01 02:30:54;;;;;;;4.30;2.37;;;4.00;99.90;;;;;;4848014;29;20531;-71
2023/02/01 02:33:33;;;;;;;17.60;3.80;;;3.90;99.90;;;;;;4842328;29;20475;-71
2023/02/01 02:36:13;;;;;;;8.07;2.67;;;3.90;99.90;;;;;;4871637;29;21028;-71
2023/02/01 02:39:00;;;;;;;9.27;2.43;;;4.10;99.90;;;;;;4868430;29;20410;-72
2023/02/01 02:47:40;;;;;;;5.33;3.30;;;4.20;99.90;;;;;;4869276;29;20461;-72
2023/02/01 03:04:26;;;;;;;3.77;2.67;;;4.10;99.90;;;;;;4869369;29;20422;-72
2023/02/01 03:06:52;;;;;;;6.57;2.70;;;4.10;99.90;;;;;;4871337;29;20441;-71
2023/02/01 03:09:32;;;;;;;9.30;3.03;;;4.20;99.90;;;;;;4869782;29;20656;-72
2023/02/01 03:15:05;;;;;;;8.40;2.60;;;4.10;99.90;;;;;;4872672;29;20420;-71
2023/02/01 03:17:39;;;;;;;10.67;2.47;;;4.10;99.90;;;;;;4869514;29;21022;-71
2023/02/01 03:20:06;;;;;;;11.37;3.17;;;4.10;99.90;;;;;;4863692;29;20475;-70
2023/02/01 03:22:35;;;;;;;7.00;3.07;;;4.10;99.90;;;;;;4873086;29;20504;-71
2023/02/01 03:25:17;;;;;;;12.73;2.50;;;4.10;99.90;;;;;;4872188;29;20510;-70
2023/02/01 03:27:55;;;;;;;11.00;2.60;;;4.10;99.90;;;;;;4871981;29;20454;-70
2023/02/01 03:30:25;;;;;;;10.83;4.60;;;4.00;99.90;;;;;;4871670;29;20437;-70
2023/02/01 03:32:58;;;;;;;10.70;2.63;;;4.10;99.90;;;;;;4873719;29;20466;-70
2023/02/01 03:35:27;;;;;;;5.53;3.30;;;4.20;99.90;;;;;;4869124;29;20508;-70
2023/02/01 03:38:02;;;;;;;10.23;2.87;;;4.10;99.90;;;;;;4870944;29;20425;-71
2023/02/01 03:40:30;;;;;;;7.73;3.23;;;4.10;99.90;;;;;;4865336;29;20415;-72
2023/02/01 03:42:59;;;;;;;5.13;2.63;;;4.10;99.90;;;;;;4870685;29;21176;-71
2023/02/01 03:45:33;;;;;;;10.57;2.77;;;4.00;99.90;;;;;;4870618;29;20774;-71
2023/02/01 03:48:01;;;;;;;14.80;3.40;;;4.10;99.90;;;;;;4875273;29;20527;-71
2023/02/01 03:50:29;;;;;;;11.23;1.97;;;4.00;99.90;;;;;;4874904;29;20476;-71
2023/02/01 03:53:01;;;;;;;8.53;2.47;;;4.10;99.90;;;;;;4878723;29;20461;-71
2023/02/01 03:55:29;;;;;;;12.23;5.07;;;4.10;99.90;;;;;;4876705;29;20442;-73
2023/02/01 03:58:01;;;;;;;12.57;2.77;;;4.10;99.90;;;;;;4876409;29;20932;-71
2023/02/01 04:00:27;;;;;;;10.23;2.43;;;4.20;99.90;;;;;;4871426;29;20418;-71
2023/02/01 04:02:53;;;;;;;7.87;2.03;;;4.10;99.90;;;;;;4877432;29;20409;-70
2023/02/01 04:05:19;;;;;;;12.87;2.97;;;4.20;99.90;;;;;;4873205;29;20189;-71
2023/02/01 04:07:45;;;;;;;12.60;2.33;;;4.20;99.90;;;;;;4871378;29;20438;-70
2023/02/01 04:10:11;;;;;;;7.67;1.83;;;4.30;99.90;;;;;;4873147;29;20830;-71
2023/02/01 04:12:37;;;;;;;11.00;3.10;;;4.30;99.90;;;;;;4871865;29;20182;-71
2023/02/01 04:15:03;;;;;;;7.63;2.87;;;4.40;99.90;;;;;;4877566;29;20976;-72
2023/02/01 04:17:29;;;;;;;4.20;2.67;;;4.40;99.90;;;;;;4867925;29;20758;-70
2023/02/01 04:19:55;;;;;;;12.10;2.23;;;4.40;99.90;;;;;;4881391;29;20491;-71
2023/02/01 04:22:21;;;;;;;11.07;3.37;;;4.50;99.90;;;;;;4872430;29;20775;-70
2023/02/01 04:24:46;;;;;;;8.23;2.57;;;4.60;99.90;;;;;;4871109;29;20238;-69
2023/02/01 04:27:12;;;;;;;6.50;2.17;;;4.60;99.90;;;;;;4874122;29;20205;-70
2023/02/01 04:29:38;;;;;;;19.43;3.07;;;4.50;99.90;;;;;;4867182;29;20224;-70
2023/02/01 04:32:05;;;;;;;12.20;2.57;;;4.50;99.90;;;;;;4872642;29;20211;-70
2023/02/01 04:34:30;;;;;;;12.13;2.97;;;4.60;99.90;;;;;;4866058;29;20465;-70
2023/02/01 04:36:56;;;;;;;5.83;2.40;;;4.70;99.90;;;;;;4866471;29;21007;-71
2023/02/01 04:39:22;;;;;;;5.00;2.57;;;4.70;99.90;;;;;;4872334;29;20811;-71
2023/02/01 04:41:47;;;;;;;20.37;4.60;;;4.70;99.90;;;;;;4871176;29;20578;-70
2023/02/01 04:44:16;;;;;;;6.97;2.47;;;4.70;99.90;;;;;;4869138;29;20675;-71
2023/02/01 04:46:42;;;;;;;10.83;3.03;;;4.70;99.90;;;;;;4854860;29;20205;-71
2023/02/01 04:49:10;;;;;;;6.13;2.27;;;4.70;99.90;;;;;;4868413;29;20414;-70
2023/02/01 04:51:35;;;;;;;15.87;3.60;;;4.80;99.90;;;;;;4876050;29;20516;-69
2023/02/01 04:54:01;;;;;;;8.30;2.30;;;4.80;99.90;;;;;;4873281;29;20544;-69
2023/02/01 04:56:27;;;;;;;11.33;2.67;;;4.90;99.90;;;;;;4874036;29;20196;-70
2023/02/01 04:58:53;;;;;;;12.70;2.53;;;4.90;99.90;;;;;;4872390;29;20422;-70
2023/02/01 05:01:18;;;;;;;6.03;2.40;;;4.90;99.90;;;;;;4872200;29;20181;-71
2023/02/01 05:03:44;;;;;;;11.67;2.87;;;5.00;99.90;;;;;;4877152;29;20271;-71
2023/02/01 05:06:10;;;;;;;11.37;3.10;;;5.00;99.90;;;;;;4867969;29;20205;-70
2023/02/01 05:08:35;;;;;;;10.80;2.83;;;5.00;99.90;;;;;;4868920;29;20189;-70
2023/02/01 05:11:04;;;;;;;8.53;1.97;;;5.00;99.90;;;;;;4869850;29;20422;-70
2023/02/01 05:13:48;;;;;;;25.20;4.53;;;5.00;99.90;;;;;;4861153;29;20209;-70
2023/02/01 05:16:14;;;;;;;19.60;2.90;;;5.10;99.90;;;;;;4871636;29;20461;-70
2023/02/01 05:18:40;;;;;;;6.80;2.20;;;5.10;99.90;;;;;;4869653;29;20501;-71
2023/02/01 05:21:06;;;;;;;7.50;2.20;;;5.20;99.90;;;;;;4869952;29;20462;-70
2023/02/01 05:23:31;;;;;;;11.93;2.23;;;5.20;99.90;;;;;;4865103;29;20187;-70
2023/02/01 05:26:01;;;;;;;12.37;3.33;;;5.20;99.90;;;;;;4876463;29;20216;-71
2023/02/01 05:28:28;;;;;;;16.23;3.43;;;5.20;99.90;;;;;;4869590;29;20226;-71
2023/02/01 05:30:54;;;;;;;8.90;3.40;;;5.20;99.90;;;;;;4869604;29;20450;-70
2023/02/01 05:33:20;;;;;;;7.80;2.70;;;5.20;99.90;;;;;;4868387;29;20984;-70
2023/02/01 05:35:45;;;;;;;4.13;2.27;;;5.20;99.90;;;;;;4874743;29;20415;-71
2023/02/01 05:38:11;;;;;;;12.67;2.60;;;5.30;99.90;;;;;;4869430;29;20897;-71
2023/02/01 05:40:36;;;;;;;5.83;2.00;;;5.30;99.90;;;;;;4874079;29;20201;-71
2023/02/01 05:43:02;;;;;;;8.17;3.13;;;5.30;99.90;;;;;;4867916;29;20173;-71
2023/02/01 05:45:28;;;;;;;10.53;2.70;;;5.30;99.90;;;;;;4873939;29;20188;-71
2023/02/01 05:47:53;;;;;;;19.67;4.03;;;5.30;99.90;;;;;;4877211;29;20406;-71
2023/02/01 05:50:19;;;;;;;15.10;2.37;;;5.30;99.90;;;;;;4875642;29;20551;-70
2023/02/01 05:52:44;;;;;;;17.93;3.93;;;5.40;99.90;;;;;;4878662;29;20257;-70
2023/02/01 05:55:10;;;;;;;11.53;3.10;;;5.30;99.90;;;;;;4871224;29;20177;-70
2023/02/01 05:57:35;;;;;;;11.83;3.17;;;5.30;99.90;;;;;;4872558;29;20188;-71
2023/02/01 06:00:02;;;;;;;9.57;3.17;;;5.30;99.90;;;;;;4872138;29;20185;-71
2023/02/01 06:02:27;;;;;;;6.47;2.83;;;5.30;99.90;;;;;;4877814;29;20275;-70
2023/02/01 06:04:53;;;;;;;8.43;3.10;;;5.30;99.90;;;;;;4878025;29;20453;-70
2023/02/01 06:07:18;;;;;;;6.87;2.77;;;5.30;99.90;;;;;;4872051;29;20205;-71
2023/02/01 06:09:44;;;;;;;6.93;2.70;;;5.30;99.90;;;;;;4877417;29;20177;-70
2023/02/01 06:12:10;;;;;;;10.93;2.80;;;5.30;99.90;;;;;;4872880;29;20184;-71
2023/02/01 06:14:36;;;;;;;13.03;3.10;;;5.30;99.90;;;;;;4872330;29;20695;-70
2023/02/01 06:17:02;;;;;;;13.80;3.90;;;5.30;99.90;;;;;;4871277;29;20221;-71
2023/02/01 06:19:28;;;;;;;14.37;3.47;;;5.30;99.90;;;;;;4875656;29;20424;-71
2023/02/01 06:21:53;;;;;;;3.60;1.87;;;5.30;99.90;;;;;;4874395;29;20173;-70
2023/02/01 06:24:19;;;;;;;6.70;3.00;;;5.30;99.90;;;;;;4876510;29;20197;-70
2023/02/01 06:26:45;;;;;;;10.43;2.97;;;5.30;99.90;;;;;;4880617;29;20197;-71
2023/02/01 06:29:11;;;;;;;13.20;2.10;;;5.30;99.90;;;;;;4873684;29;20185;-71
2023/02/01 06:31:36;;;;;;;10.07;2.67;;;5.20;99.90;;;;;;4873709;29;20206;-71
2023/02/01 06:34:02;;;;;;;7.87;2.83;;;5.10;99.90;;;;;;4871134;29;20703;-71
2023/02/01 06:36:29;;;;;;;19.93;3.30;;;5.10;99.90;;;;;;4874102;29;20197;-71
2023/02/01 06:38:56;;;;;;;17.27;3.80;;;5.10;99.90;;;;;;4879999;29;20513;-69
2023/02/01 06:41:22;;;;;;;10.33;2.80;;;5.00;99.90;;;;;;4871184;29;20477;-70
2023/02/01 06:43:48;;;;;;;15.43;3.00;;;5.00;99.90;;;;;;4867527;29;20493;-70
2023/02/01 06:46:14;;;;;;;15.30;3.20;;;5.10;99.90;;;;;;4873043;29;20480;-70
2023/02/01 06:48:40;;;;;;;10.43;2.67;;;5.10;99.90;;;;;;4873914;29;20177;-72
2023/02/01 06:51:15;;;;;;;11.70;3.10;;;5.00;99.90;;;;;;4874181;29;20999;-70
2023/02/01 06:53:41;;;;;;;6.63;2.17;;;5.00;99.90;;;;;;4864225;29;20601;-71
2023/02/01 06:56:08;;;;;;;10.87;2.03;;;5.00;99.90;;;;;;4877817;29;20528;-69
2023/02/01 06:58:34;;;;;;;12.57;2.83;;;5.00;99.90;;;;;;4876344;29;20217;-69
2023/02/01 07:01:07;;;;;;;17.47;3.60;;;5.00;99.90;;;;;;4870434;29;20417;-71
2023/02/01 07:03:33;;;;;;;13.10;2.67;;;5.00;99.90;;;;;;4859518;29;20237;-73
2023/02/01 07:05:59;;;;;;;6.70;3.03;;;5.00;99.90;;;;;;4869270;29;20450;-71
2023/02/01 07:08:27;;;;;;;7.43;2.27;;;5.00;99.90;;;;;;4877014;29;20247;-71
2023/02/01 07:10:53;;;;;;;7.30;3.13;;;5.10;99.90;;;;;;4879072;29;20292;-70
2023/02/01 07:13:18;;;;;;;4.97;3.20;;;5.10;99.90;;;;;;4868772;29;20458;-69
2023/02/01 07:15:44;;;;;;;9.17;3.33;;;5.10;99.90;;;;;;4888980;29;20780;-70
2023/02/01 07:18:10;;;;;;;8.63;3.23;;;5.10;99.90;;;;;;4870053;29;20216;-71
2023/02/01 07:20:36;;;;;;;8.37;3.03;;;5.20;99.90;;;;;;4880454;29;20425;-71
2023/02/01 07:23:02;;;;;;;9.60;3.20;;;5.10;99.90;;;;;;4870095;29;20178;-71
2023/02/01 07:25:27;;;;;;;10.57;2.30;;;5.10;99.90;;;;;;4869939;29;20177;-68
2023/02/01 07:27:53;;;;;;;9.83;2.83;;;5.10;99.90;;;;;;4875066;29;20198;-70
2023/02/01 07:30:18;;;;;;;12.10;4.90;;;5.10;99.90;;;;;;4867995;29;20223;-72
2023/02/01 07:32:44;;;;;;;7.20;3.77;;;5.10;99.90;;;;;;4870582;29;20178;-72
2023/02/01 07:35:09;;;;;;;13.27;5.20;;;5.00;99.90;;;;;;4872073;29;20229;-71
2023/02/01 07:37:35;;;;;;;8.20;3.00;;;5.10;99.90;;;;;;4879297;29;20288;-71
2023/02/01 07:40:01;;;;;;;7.37;2.23;;;5.10;99.90;;;;;;4871346;29;20223;-71
2023/02/01 07:42:26;;;;;;;5.40;2.40;;;5.10;99.90;;;;;;4869476;29;20183;-71
2023/02/01 07:44:52;;;;;;;16.70;4.67;;;5.10;99.90;;;;;;4877087;29;20193;-72
2023/02/01 07:47:17;;;;;;;4.87;3.20;;;5.10;99.90;;;;;;4868161;29;20205;-72
2023/02/01 07:49:43;;;;;;;16.33;5.20;;;5.10;99.90;;;;;;4882373;29;20185;-72
2023/02/01 07:52:11;;;;;;;6.70;3.00;;;5.10;99.90;;;;;;4883222;29;20204;-72
2023/02/01 07:54:36;;;;;;;9.90;2.77;;;5.00;99.90;;;;;;4872347;29;20253;-71
2023/02/01 07:57:02;;;;;;;10.00;3.63;;;4.90;99.90;;;;;;4871455;29;20442;-71
2023/02/01 07:59:27;;;;;;;8.93;2.60;;;4.90;99.90;;;;;;4869519;29;20170;-71
2023/02/01 08:01:53;;;;;;;8.40;2.50;;;4.70;99.90;;;;;;4877162;29;20631;-70
2023/02/01 08:04:19;;;;;;;5.80;4.00;;;4.70;99.90;;;;;;4868312;29;20185;-69
2023/02/01 08:06:44;;;;;;;9.00;3.80;;;4.70;99.90;;;;;;4870149;29;20275;-70
2023/02/01 08:09:11;;;;;;;7.43;2.80;;;4.70;99.90;;;;;;4865629;29;20223;-70
2023/02/01 08:11:37;;;;;;;14.43;3.17;;;4.50;99.90;;;;;;4875955;29;20193;-70
2023/02/01 08:14:03;;;;;;;7.77;3.50;;;4.50;99.90;;;;;;4885551;29;20461;-71
2023/02/01 08:16:29;;;;;;;10.40;4.67;;;4.40;99.90;;;;;;4877351;29;20959;-71
2023/02/01 08:18:55;;;;;;;6.70;3.20;;;4.40;99.90;;;;;;4869496;29;20537;-71
2023/02/01 08:21:26;;;;;;;3.83;2.70;;;4.20;99.90;;;;;;4876467;29;20211;-71
2023/02/01 08:23:52;;;;;;;12.73;3.90;;;4.20;99.90;;;;;;4871563;29;20180;-71
2023/02/01 08:26:24;;;;;;;8.63;3.83;;;4.20;99.90;;;;;;4876340;29;20516;-71
2023/02/01 08:28:52;;;;;;;5.23;2.70;;;4.20;99.90;;;;;;4871266;29;20421;-73
2023/02/01 08:31:21;;;;;;;7.27;3.40;;;4.10;99.90;;;;;;4869295;29;20429;-71
2023/02/01 08:33:53;;;;;;;5.07;4.27;;;4.10;99.90;;;;;;4868707;29;20578;-71
2023/02/01 08:36:20;;;;;;;7.40;4.20;;;4.20;99.90;;;;;;4857891;29;20458;-71
2023/02/01 08:38:46;;;;;;;9.60;4.43;;;4.20;99.90;;;;;;4872091;29;20447;-71
2023/02/01 08:41:14;;;;;;;8.70;4.07;;;4.20;99.90;;;;;;4871693;29;20831;-71
2023/02/01 08:43:40;;;;;;;8.80;4.30;;;4.10;99.90;;;;;;4859848;29;20486;-71
2023/02/01 08:46:06;;;;;;;5.37;3.60;;;4.10;99.90;;;;;;4874280;29;21020;-71
2023/02/01 08:48:33;;;;;;;2.67;2.10;;;4.20;99.90;;;;;;4878375;29;20468;-71
2023/02/01 08:51:02;;;;;;;4.63;2.80;;;4.10;99.90;;;;;;4878165;29;20442;-72
2023/02/01 08:53:28;;;;;;;3.50;2.37;;;4.10;99.90;;;;;;4874127;29;20892;-72
2023/02/01 08:55:54;;;;;;;5.40;3.30;;;4.10;99.90;;;;;;4879519;29;20767;-70
2023/02/01 08:58:19;;;;;;;6.90;2.67;;;4.10;99.90;;;;;;4881451;29;20185;-71
2023/02/01 09:00:45;;;;;;;5.63;3.90;;;4.00;99.90;;;;;;4871611;29;20188;-72
2023/02/01 09:03:11;;;;;;;5.30;3.20;;;4.00;99.90;;;;;;4877892;29;20549;-71
2023/02/01 09:05:37;;;;;;;4.53;2.13;;;4.00;99.90;;;;;;4875508;29;20192;-71
2023/02/01 09:08:03;;;;;;;8.37;3.17;;;4.00;99.90;;;;;;4875176;29;20474;-72
2023/02/01 09:10:29;;;;;;;6.00;3.00;;;4.00;99.90;;;;;;4877745;29;20441;-72
2023/02/01 09:12:55;;;;;;;5.53;3.20;;;4.00;99.90;;;;;;4865450;29;20213;-71
2023/02/01 09:15:20;;;;;;;4.50;3.03;;;4.10;99.90;;;;;;4883788;29;20526;-72
2023/02/01 09:17:46;;;;;;;2.07;1.97;;;4.10;99.90;;;;;;4880914;29;20679;-72
2023/02/01 09:20:12;;;;;;;4.00;2.27;;;4.20;99.90;;;;;;4876151;29;20249;-72
2023/02/01 09:22:38;;;;;;;6.13;2.27;;;4.20;99.90;;;;;;4873856;29;20634;-71
2023/02/01 09:25:04;;;;;;;2.37;2.17;;;4.20;99.90;;;;;;4876996;29;20550;-71
2023/02/01 09:27:29;;;;;;;9.30;3.47;;;4.30;99.90;;;;;;4879943;29;20332;-71
2023/02/01 09:29:55;;;;;;;1.63;1.40;;;4.40;99.90;;;;;;4874267;29;20525;-70
2023/02/01 09:32:22;;;;;;;3.43;2.27;;;4.40;99.90;;;;;;4879378;29;20173;-72
2023/02/01 09:34:48;;;;;;;4.27;1.53;;;4.40;99.90;;;;;;4871346;29;20292;-71
2023/02/01 09:37:14;;;;;;;2.33;1.30;;;4.40;99.90;;;;;;4872007;29;20434;-71
2023/02/01 09:39:42;;;;;;;4.00;1.57;;;4.40;99.90;;;;;;4868392;29;20421;-72
2023/02/01 09:42:44;;;;;;;4.17;1.93;;;4.40;99.90;;;;;;4865636;29;20180;-72
2023/02/01 09:45:19;;;;;;;2.40;2.10;;;4.40;99.90;;;;;;4867477;29;20441;-72
2023/02/01 09:47:51;;;;;;;6.30;2.23;;;4.40;99.90;;;;;;4872153;29;20429;-71
2023/02/01 09:50:20;;;;;;;8.60;2.30;;;4.50;99.90;;;;;;4873415;29;20773;-71
2023/02/01 09:53:09;;;;;;;3.40;1.70;;;4.50;99.90;;;;;;4872725;29;20413;-70
2023/02/01 09:55:47;;;;;;;4.07;1.77;;;4.50;99.90;;;;;;4868121;29;20422;-72
2023/02/01 09:58:30;;;;;;;1.40;1.30;;;4.60;99.90;;;;;;4880517;29;20425;-71
2023/02/01 10:00:59;;;;;;;2.87;2.63;;;4.50;99.90;;;;;;4868691;29;20453;-72
2023/02/01 10:03:29;;;;;;;1.90;1.77;;;4.50;99.90;;;;;;4882803;29;20776;-72
2023/02/01 10:06:19;;;;;;;4.57;2.50;;;4.50;99.90;;;;;;4880877;29;20454;-72
2023/02/01 10:09:09;;;;;;;2.27;1.23;;;4.50;99.90;;;;;;4872022;29;20824;-72
2023/02/01 10:12:05;;;;;;;3.23;1.43;;;4.50;99.90;;;;;;4880996;29;20421;-70
2023/02/01 10:15:17;;;;;;;4.33;1.50;;;4.50;99.90;;;;;;4904661;23;20497;-75
2023/02/01 10:17:48;;;;;;;1.50;1.20;;;4.40;99.90;;;;;;4901565;29;20396;-74
2023/02/01 10:20:33;;;;;;;1.10;1.00;;;4.40;99.90;;;;;;4895488;29;20418;-75
2023/02/01 10:23:11;;;;;;;1.30;1.13;;;4.30;99.90;;;;;;4893974;29;20754;-75
2023/02/01 10:25:42;;;;;;;5.93;1.77;;;4.30;99.90;;;;;;4892454;29;20807;-74
2023/02/01 10:28:15;;;;;;;5.53;3.03;;;4.40;99.90;;;;;;4880197;29;20409;-75
2023/02/01 10:30:44;;;;;;;3.20;1.90;;;4.40;99.90;;;;;;4867598;29;20427;-74
2023/02/01 10:33:39;;;;;;;3.80;1.47;;;4.50;99.90;;;;;;4880006;29;20505;-75
2023/02/01 10:36:11;;;;;;;4.23;1.83;;;4.50;99.90;;;;;;4876403;29;20422;-75
2023/02/01 10:38:37;;;;;;;3.00;2.13;;;4.50;99.90;;;;;;4878961;29;20417;-75
2023/02/01 10:41:23;;;;;;;3.17;2.10;;;4.60;99.90;;;;;;4874571;29;20432;-74
2023/02/01 10:43:57;;;;;;;1.67;1.40;;;4.80;99.90;;;;;;4871673;29;20260;-73
2023/02/01 10:46:23;;;;;;;3.27;2.07;;;4.80;99.90;;;;;;4882725;29;20416;-74
2023/02/01 10:48:52;;;;;;;4.47;1.57;;;4.80;99.90;;;;;;4877730;29;20452;-73
2023/02/01 10:51:41;;;;;;;7.83;2.17;;;4.80;99.90;;;;;;4877802;29;20955;-75
2023/02/01 10:54:20;;;;;;;4.50;1.70;;;4.80;99.90;;;;;;4876257;29;20472;-74
2023/02/01 10:56:46;;;;;;;3.80;1.90;;;4.70;99.90;;;;;;4878775;29;20473;-74
2023/02/01 10:59:23;;;;;;;4.47;1.20;;;4.70;99.90;;;;;;4875034;29;20418;-74
2023/02/01 11:01:50;;;;;;;2.20;1.60;;;4.50;99.90;;;;;;4878301;29;20409;-74
2023/02/01 11:04:16;;;;;;;2.07;1.40;;;4.50;99.90;;;;;;4872885;29;20838;-74
2023/02/01 11:06:45;;;;;;;7.03;1.17;;;4.50;99.90;;;;;;4875920;29;20456;-74
2023/02/01 11:09:20;;;;;;;2.63;2.07;;;4.50;99.90;;;;;;4877921;29;20516;-73
2023/02/01 11:11:48;;;;;;;2.13;1.93;;;4.60;99.90;;;;;;4874150;29;20472;-74
2023/02/01 11:14:37;;;;;;;4.43;2.47;;;4.60;99.90;;;;;;4879004;29;20864;-74
2023/02/01 11:17:15;;;;;;;4.43;2.33;;;4.70;99.90;;;;;;4875959;29;20457;-73
2023/02/01 11:20:05;;;;;;;1.47;1.20;;;4.80;99.90;;;;;;4861421;29;20481;-66
2023/02/01 11:22:31;;;;;;;4.23;2.07;;;4.90;99.90;;;;;;4875189;29;20434;-73
2023/02/01 11:24:58;;;;;;;2.03;1.40;;;5.00;99.90;;;;;;4880907;29;20461;-73
2023/02/01 11:27:25;;;;;;;2.40;1.40;;;5.10;99.90;;;;;;4869934;29;20538;-74
